Time;durP1;ratioP1;P1;durP2;ratioP2;P2;SDS_P1;SDS_P2;PMS_P1;PMS_P2;Temp;Humidity;BMP_temperature;BMP_pressure;BME280_temperature;BME280_humidity;BME280_pressure;Samples;Min_cycle;Max_cycle;Signal;HPM_P1;HPM_P2
2022/08/22 00:00:31;;;;;;;5.45;2.72;;;;;;;25.81;37.37;99541.59;4145855;28;20914;-66
2022/08/22 00:02:43;;;;;;;4.40;3.00;;;;;;;25.64;37.66;99528.16;4134723;28;20287;-66
2022/08/22 00:05:28;;;;;;;9.20;3.35;;;;;;;25.83;36.97;99530.44;4128580;28;20261;-66
2022/08/22 00:07:52;;;;;;;4.63;2.75;;;;;;;25.77;37.58;99540.50;4135806;28;20287;-66
2022/08/22 00:09:57;;;;;;;4.85;3.38;;;;;;;25.08;38.27;99560.47;4139150;28;20287;-69
2022/08/22 00:12:21;;;;;;;6.97;3.47;;;;;;;25.59;37.78;99542.59;4140517;28;20256;-65
2022/08/22 00:14:33;;;;;;;5.20;3.20;;;;;;;25.73;37.18;99553.00;4137354;28;20225;-69
2022/08/22 00:16:57;;;;;;;5.15;3.05;;;;;;;25.74;37.20;99554.63;4142837;28;20803;-69
2022/08/22 00:19:18;;;;;;;4.40;3.40;;;;;;;24.54;39.40;99559.41;4141625;28;20221;-66
2022/08/22 00:21:51;;;;;;;3.90;2.72;;;;;;;24.23;39.42;99553.66;4144939;28;20225;-68
2022/08/22 00:24:13;;;;;;;5.97;3.15;;;;;;;25.40;38.17;99534.03;4141936;28;20268;-66
2022/08/22 00:26:32;;;;;;;6.13;2.65;;;;;;;25.59;37.65;99541.75;4148011;28;20448;-65
2022/08/22 00:29:00;;;;;;;5.93;2.95;;;;;;;25.39;37.90;99551.47;4141301;28;20233;-67
2022/08/22 00:31:19;;;;;;;6.07;3.47;;;;;;;25.50;37.83;99551.53;4148557;28;20355;-66
2022/08/22 00:33:37;;;;;;;4.57;3.00;;;;;;;25.41;37.86;99549.28;4145363;28;20291;-66
2022/08/22 00:35:48;;;;;;;5.47;3.40;;;;;;;25.57;38.08;99543.94;4142406;28;20237;-67
2022/08/22 00:38:12;;;;;;;5.28;3.08;;;;;;;25.50;37.92;99537.91;4145260;28;20233;-65
2022/08/22 00:40:34;;;;;;;5.15;3.22;;;;;;;25.20;38.85;99539.31;4142971;28;20221;-66
2022/08/22 00:43:08;;;;;;;6.80;3.08;;;;;;;24.86;38.78;99534.16;4144149;28;20233;-66
2022/08/22 00:45:16;;;;;;;5.85;3.17;;;;;;;25.22;38.43;99537.16;4137414;28;20280;-66
2022/08/22 00:47:51;;;;;;;7.07;3.33;;;;;;;25.46;37.93;99524.00;4139503;28;20240;-66
2022/08/22 00:50:08;;;;;;;5.45;3.15;;;;;;;25.31;38.43;99532.06;4140551;28;20698;-67
2022/08/22 00:52:22;;;;;;;5.18;3.20;;;;;;;25.24;38.33;99535.81;4143614;28;20229;-67
2022/08/22 00:54:38;;;;;;;5.40;3.47;;;;;;;25.33;38.11;99536.13;4140833;28;20265;-68
2022/08/22 00:56:43;;;;;;;4.45;3.00;;;;;;;25.29;38.31;99542.38;4143691;28;20619;-66
2022/08/22 00:59:16;;;;;;;6.93;3.40;;;;;;;25.37;38.26;99545.47;4151378;28;20260;-66
2022/08/22 01:01:34;;;;;;;5.53;3.15;;;;;;;25.51;38.02;99548.53;4145974;28;20286;-67
2022/08/22 01:03:47;;;;;;;4.38;3.17;;;;;;;24.76;39.65;99558.53;4142898;28;20263;-67
2022/08/22 01:06:13;;;;;;;6.18;3.30;;;;;;;25.28;38.75;99538.03;4151471;28;20233;-67
2022/08/22 01:08:39;;;;;;;4.03;2.88;;;;;;;25.05;38.81;99549.03;4150325;28;20229;-66
2022/08/22 01:10:53;;;;;;;8.63;3.30;;;;;;;24.44;39.94;99551.97;4146361;28;20708;-67
2022/08/22 01:13:13;;;;;;;6.88;3.38;;;;;;;24.64;40.00;99532.31;4146470;28;20286;-67
2022/08/22 01:15:23;;;;;;;4.72;3.45;;;;;;;24.84;39.47;99528.19;4130166;28;20238;-68
2022/08/22 01:17:46;;;;;;;6.00;3.50;;;;;;;24.65;39.69;99527.72;4139310;28;20302;-68
2022/08/22 01:20:26;;;;;;;5.53;3.65;;;;;;;24.78;39.44;99535.44;4140692;28;20233;-66
2022/08/22 01:22:42;;;;;;;3.95;2.88;;;;;;;24.63;39.93;99536.13;4142646;28;20648;-66
2022/08/22 01:25:17;;;;;;;4.57;3.10;;;;;;;24.92;39.57;99524.97;4141290;28;20236;-68
2022/08/22 01:28:01;;;;;;;8.32;3.08;;;;;;;24.93;39.20;99531.22;4143257;28;20232;-66
2022/08/22 01:30:16;;;;;;;6.47;3.20;;;;;;;25.21;38.84;99528.19;4143508;28;20856;-67
2022/08/22 01:33:08;;;;;;;5.90;3.08;;;;;;;25.12;39.03;99534.34;4143841;28;20247;-66
2022/08/22 01:35:27;;;;;;;8.43;3.22;;;;;;;25.08;39.04;99539.50;4141834;28;20225;-66
2022/08/22 01:37:57;;;;;;;5.43;3.20;;;;;;;25.10;38.77;99531.91;4136978;28;20299;-66
2022/08/22 01:39:59;;;;;;;6.30;3.20;;;;;;;25.20;38.49;99525.72;4146054;28;20225;-65
2022/08/22 01:42:30;;;;;;;5.95;3.28;;;;;;;25.44;38.57;99520.72;4140875;28;20698;-68
2022/08/22 01:44:53;;;;;;;5.68;3.28;;;;;;;25.13;39.29;99530.56;4142349;28;20835;-66
2022/08/22 01:47:13;;;;;;;7.00;3.90;;;;;;;24.97;39.31;99527.75;4139909;28;20292;-66
2022/08/22 01:49:19;;;;;;;7.00;3.13;;;;;;;25.30;39.16;99523.06;4141407;28;20710;-66
2022/08/22 01:51:25;;;;;;;8.38;3.72;;;;;;;24.78;39.66;99526.47;4146712;28;20666;-66
2022/08/22 01:53:41;;;;;;;5.40;3.00;;;;;;;24.86;39.79;99531.44;4140200;28;20284;-67
2022/08/22 01:56:14;;;;;;;5.32;3.40;;;;;;;24.79;39.99;99517.25;4143818;28;20245;-69
2022/08/22 01:58:19;;;;;;;5.00;3.22;;;;;;;24.83;40.15;99510.22;4148906;28;20290;-66
2022/08/22 02:00:24;;;;;;;5.57;3.08;;;;;;;24.79;39.83;99519.97;4140431;28;20241;-67
2022/08/22 02:02:54;;;;;;;8.65;3.55;;;;;;;25.18;39.64;99511.56;4139272;28;20241;-66
2022/08/22 02:05:05;;;;;;;5.13;3.30;;;;;;;24.88;39.58;99531.19;4143148;28;20295;-66
2022/08/22 02:07:19;;;;;;;7.03;3.35;;;;;;;25.01;39.81;99523.41;4144388;28;20225;-66
2022/08/22 02:09:45;;;;;;;4.90;3.42;;;;;;;24.74;40.00;99523.44;4143910;28;20237;-66
2022/08/22 02:11:57;;;;;;;5.50;3.53;;;;;;;24.43;40.73;99522.31;4142002;28;20233;-65
2022/08/22 02:14:12;;;;;;;5.32;3.25;;;;;;;24.17;41.26;99523.97;4142107;28;20229;-67
2022/08/22 02:16:37;;;;;;;6.25;3.45;;;;;;;24.31;41.43;99509.72;4144518;28;20271;-66
2022/08/22 02:18:53;;;;;;;4.30;3.08;;;;;;;24.10;41.76;99502.41;4141935;28;20240;-67
2022/08/22 02:21:09;;;;;;;6.18;3.45;;;;;;;24.00;42.07;99513.97;4147921;28;20275;-66
2022/08/22 02:23:22;;;;;;;7.60;3.15;;;;;;;24.12;41.67;99506.50;4144098;28;20229;-66
2022/08/22 02:25:31;;;;;;;7.85;3.22;;;;;;;24.23;41.66;99510.19;4140368;28;20925;-67
2022/08/22 02:27:42;;;;;;;5.63;3.22;;;;;;;24.36;41.62;99506.22;4145920;28;20236;-66
2022/08/22 02:29:49;;;;;;;6.40;3.55;;;;;;;24.05;41.95;99518.66;4142747;28;20237;-68
2022/08/22 02:32:04;;;;;;;7.85;3.55;;;;;;;23.70;42.66;99515.22;4146272;28;20721;-66
2022/08/22 02:34:38;;;;;;;6.75;3.47;;;;;;;23.44;43.53;99505.91;4141139;28;20229;-66
2022/08/22 02:36:49;;;;;;;6.78;3.45;;;;;;;23.88;42.58;99495.09;4143473;28;20248;-66
2022/08/22 02:38:58;;;;;;;4.53;3.20;;;;;;;24.00;42.38;99488.72;4141534;28;20232;-67
2022/08/22 02:41:16;;;;;;;4.57;3.42;;;;;;;24.12;42.12;99500.25;4142484;28;20679;-66
2022/08/22 02:43:27;;;;;;;6.40;3.67;;;;;;;23.90;42.71;99497.56;4138747;28;20291;-66
2022/08/22 02:45:52;;;;;;;5.78;3.17;;;;;;;24.52;41.29;99499.06;4137460;28;20239;-66
2022/08/22 02:48:09;;;;;;;5.40;3.08;;;;;;;24.44;41.27;99497.59;4143878;28;20255;-67
2022/08/22 02:50:40;;;;;;;5.53;3.60;;;;;;;24.50;41.37;99504.75;4142555;28;20225;-67
2022/08/22 02:53:19;;;;;;;7.35;3.55;;;;;;;24.44;41.18;99500.31;4138446;28;20244;-66
2022/08/22 02:55:45;;;;;;;5.38;3.17;;;;;;;24.12;41.55;99503.78;4145167;28;20245;-67
2022/08/22 02:57:59;;;;;;;4.53;3.30;;;;;;;24.64;41.08;99507.84;4142900;28;20232;-66
2022/08/22 03:00:26;;;;;;;4.78;3.00;;;;;;;24.80;40.42;99514.28;4143581;28;20807;-66
2022/08/22 03:02:45;;;;;;;7.00;3.55;;;;;;;24.93;40.15;99512.19;4140758;28;20229;-66
2022/08/22 03:04:53;;;;;;;4.78;3.22;;;;;;;24.32;41.06;99535.00;4143199;28;20748;-68
2022/08/22 03:07:19;;;;;;;6.50;3.47;;;;;;;24.62;40.68;99525.50;4146893;28;20232;-68
2022/08/22 03:09:28;;;;;;;5.88;3.53;;;;;;;24.80;40.36;99521.59;4140981;28;20236;-67
2022/08/22 03:11:38;;;;;;;5.57;3.67;;;;;;;25.09;39.65;99533.00;4143457;28;20236;-66
2022/08/22 03:14:00;;;;;;;8.68;4.03;;;;;;;25.26;39.80;99524.69;4139356;28;20290;-66
2022/08/22 03:16:27;;;;;;;6.70;3.63;;;;;;;25.19;39.66;99532.25;4139627;28;20241;-67
2022/08/22 03:18:40;;;;;;;6.65;3.65;;;;;;;24.77;40.37;99533.84;4141610;28;20239;-67
2022/08/22 03:20:54;;;;;;;6.80;3.43;;;;;;;24.73;40.25;99540.81;4141139;28;20236;-66
2022/08/22 03:23:04;;;;;;;6.97;3.65;;;;;;;24.62;40.51;99534.47;4139422;28;20284;-66
2022/08/22 03:25:18;;;;;;;6.57;3.30;;;;;;;24.41;40.99;99535.34;4144573;28;20878;-66
2022/08/22 03:27:40;;;;;;;6.45;3.10;;;;;;;24.57;40.33;99533.63;4139802;28;20671;-67
2022/08/22 03:29:48;;;;;;;4.43;3.10;;;;;;;24.71;40.32;99532.09;4143681;28;20819;-66
2022/08/22 03:32:07;;;;;;;7.50;3.50;;;;;;;24.82;40.05;99530.34;4143014;28;20306;-66
2022/08/22 03:34:25;;;;;;;5.03;3.37;;;;;;;24.49;40.56;99540.31;4144998;28;20363;-67
2022/08/22 03:36:28;;;;;;;6.83;3.40;;;;;;;24.34;40.37;99534.75;4141232;28;20237;-66
2022/08/22 03:38:33;;;;;;;6.83;3.47;;;;;;;24.50;40.25;99518.34;4142454;28;20240;-67
2022/08/22 03:40:54;;;;;;;6.17;3.60;;;;;;;24.00;41.04;99530.25;4141039;28;20664;-67
2022/08/22 03:43:07;;;;;;;4.80;3.33;;;;;;;24.31;40.51;99517.88;4139853;28;20233;-67
2022/08/22 03:45:41;;;;;;;4.10;3.10;;;;;;;24.25;40.71;99515.38;4147060;28;20225;-67
2022/08/22 03:48:06;;;;;;;3.87;2.73;;;;;;;24.12;40.81;99521.97;4132694;28;20240;-67
2022/08/22 03:50:26;;;;;;;7.97;3.40;;;;;;;23.75;41.27;99533.47;4147763;28;20302;-66
2022/08/22 03:55:38;;;;;;;6.40;3.20;;;;;;;23.85;41.21;99521.94;4145044;28;20283;-67
2022/08/22 03:58:00;;;;;;;5.30;3.00;;;;;;;23.51;41.28;99520.13;4136752;28;20302;-67
2022/08/22 04:00:38;;;;;;;5.67;3.17;;;;;;;23.22;41.93;99505.06;4143044;28;20237;-68
2022/08/22 04:03:16;;;;;;;6.30;3.77;;;;;;;23.27;41.74;99503.25;4148186;28;20315;-67
2022/08/22 04:05:27;;;;;;;6.57;3.03;;;;;;;23.09;42.13;99501.59;4142306;28;20232;-68
2022/08/22 04:07:41;;;;;;;5.13;3.13;;;;;;;23.24;41.96;99509.16;4146590;28;20232;-67
2022/08/22 04:10:06;;;;;;;5.63;3.17;;;;;;;22.89;42.62;99504.78;4142692;28;20237;-67
2022/08/22 04:12:23;;;;;;;4.67;2.90;;;;;;;22.75;42.86;99517.03;4149466;28;20241;-67
2022/08/22 04:14:48;;;;;;;5.03;3.00;;;;;;;23.26;41.93;99496.16;4143073;28;20515;-66
2022/08/22 04:17:19;;;;;;;6.23;3.80;;;;;;;23.16;42.38;99493.31;4143854;28;20241;-66
2022/08/22 04:19:45;;;;;;;4.70;3.40;;;;;;;23.42;41.84;99508.06;4142032;28;20825;-67
2022/08/22 04:21:53;;;;;;;7.33;3.60;;;;;;;23.14;42.20;99509.00;4148894;28;21794;-67
2022/08/22 04:24:19;;;;;;;7.27;3.47;;;;;;;23.24;42.25;99494.78;4143397;28;20229;-68
2022/08/22 04:26:55;;;;;;;4.83;3.00;;;;;;;23.45;41.91;99506.72;4139504;28;20777;-67
2022/08/22 04:29:13;;;;;;;6.40;3.50;;;;;;;23.64;41.53;99515.44;4143203;28;20281;-67
2022/08/22 04:31:23;;;;;;;6.83;3.03;;;;;;;23.55;42.07;99529.44;4144262;28;20593;-67
2022/08/22 04:33:32;;;;;;;5.30;3.53;;;;;;;23.48;42.01;99520.59;4144868;28;20295;-67
2022/08/22 04:36:14;;;;;;;6.17;3.37;;;;;;;23.14;42.43;99522.56;4140439;28;20615;-67
2022/08/22 04:38:16;;;;;;;3.83;3.43;;;;;;;23.68;41.65;99524.72;4128840;28;20611;-67
2022/08/22 04:40:42;;;;;;;8.83;3.33;;;;;;;23.62;41.74;99528.41;4145679;28;20399;-66
2022/08/22 04:42:57;;;;;;;6.83;3.60;;;;;;;23.46;41.99;99536.31;4145760;28;20237;-67
2022/08/22 04:45:12;;;;;;;7.57;3.47;;;;;;;22.86;42.93;99540.56;4146760;28;20286;-66
2022/08/22 04:47:31;;;;;;;8.67;3.30;;;;;;;23.58;42.08;99533.53;4144335;28;20299;-68
2022/08/22 04:49:45;;;;;;;7.07;3.60;;;;;;;23.10;42.49;99537.72;4146068;28;20232;-67
2022/08/22 04:51:53;;;;;;;5.67;3.70;;;;;;;22.34;43.98;99524.44;4140616;28;20369;-67
2022/08/22 04:54:29;;;;;;;7.60;3.90;;;;;;;22.96;43.01;99510.91;4145041;28;20275;-67
2022/08/22 04:56:49;;;;;;;6.97;4.00;;;;;;;23.49;42.13;99507.88;4138804;28;20957;-66
2022/08/22 04:59:02;;;;;;;11.93;3.90;;;;;;;23.02;42.73;99530.78;4136750;28;20229;-68
2022/08/22 05:01:15;;;;;;;5.90;3.47;;;;;;;22.49;43.46;99535.56;4128261;28;20252;-68
2022/08/22 05:03:22;;;;;;;7.13;3.67;;;;;;;23.17;42.50;99524.78;4141521;28;20226;-66
2022/08/22 05:05:36;;;;;;;5.53;3.77;;;;;;;22.89;42.94;99522.97;4152519;28;20310;-69
2022/08/22 05:07:44;;;;;;;7.20;3.50;;;;;;;23.15;42.42;99527.75;4140932;28;20283;-66
2022/08/22 05:09:51;;;;;;;5.07;3.43;;;;;;;22.90;42.53;99538.16;4145491;28;20228;-68
2022/08/22 05:11:59;;;;;;;8.37;3.53;;;;;;;23.03;42.69;99532.44;4143481;28;20395;-69
2022/08/22 05:14:06;;;;;;;5.70;3.33;;;;;;;22.89;43.10;99525.66;4140247;28;20232;-66
2022/08/22 05:16:14;;;;;;;8.13;3.40;;;;;;;23.28;42.20;99531.19;4146088;28;20224;-67
2022/08/22 05:18:22;;;;;;;4.87;3.53;;;;;;;23.17;42.62;99530.22;4144996;28;20291;-66
2022/08/22 05:20:30;;;;;;;6.87;3.50;;;;;;;22.50;43.78;99533.69;4129438;28;20276;-66
2022/08/22 05:22:38;;;;;;;7.73;3.40;;;;;;;23.16;42.65;99513.09;4134939;28;20237;-66
2022/08/22 05:24:47;;;;;;;5.57;3.70;;;;;;;23.57;41.79;99523.78;4131326;28;20745;-68
2022/08/22 05:26:54;;;;;;;5.83;3.70;;;;;;;23.22;42.32;99535.72;4137509;28;20237;-66
2022/08/22 05:29:01;;;;;;;6.30;3.47;;;;;;;23.06;42.78;99533.81;4130719;28;20304;-66
2022/08/22 05:31:11;;;;;;;6.27;3.40;;;;;;;23.29;42.37;99538.25;4162240;28;20354;-66
2022/08/22 05:33:17;;;;;;;6.50;3.93;;;;;;;22.78;43.03;99558.03;4145273;28;20296;-66
2022/08/22 05:35:32;;;;;;;6.00;3.53;;;;;;;23.31;42.40;99546.97;4146463;28;20225;-67
2022/08/22 05:37:52;;;;;;;6.63;3.70;;;;;;;22.83;43.51;99543.75;4142711;28;20721;-68
2022/08/22 05:39:57;;;;;;;5.90;3.60;;;;;;;22.69;43.62;99539.69;4135749;28;20244;-67
2022/08/22 05:42:02;;;;;;;5.37;3.87;;;;;;;23.34;42.40;99546.47;4142511;28;20641;-66
2022/08/22 05:44:12;;;;;;;7.07;4.00;;;;;;;23.43;42.03;99552.28;4139465;28;20292;-67
2022/08/22 05:46:24;;;;;;;8.03;4.00;;;;;;;23.72;41.77;99544.84;4142054;28;20287;-67
2022/08/22 05:48:40;;;;;;;5.77;3.53;;;;;;;23.62;41.92;99550.97;4136495;28;20241;-67
2022/08/22 05:50:50;;;;;;;11.97;3.87;;;;;;;23.77;41.44;99558.47;4145676;28;20663;-67
2022/08/22 05:53:14;;;;;;;9.70;3.90;;;;;;;23.76;41.64;99563.09;4149134;28;22338;-68
2022/08/22 05:55:43;;;;;;;10.23;3.73;;;;;;;23.97;41.57;99559.81;4142558;28;20593;-69
2022/08/22 05:57:51;;;;;;;8.07;3.40;;;;;;;23.53;41.74;99579.56;4142054;28;20247;-67
2022/08/22 06:00:02;;;;;;;5.77;3.27;;;;;;;23.31;42.60;99571.38;4141860;28;20858;-68
2022/08/22 06:02:04;;;;;;;8.60;3.73;;;;;;;23.29;42.37;99573.53;4139985;28;20611;-67
2022/08/22 06:04:40;;;;;;;7.43;3.50;;;;;;;23.84;41.73;99561.84;4143612;28;20249;-67
2022/08/22 06:06:55;;;;;;;4.00;3.20;;;;;;;22.77;43.49;99559.06;4122583;28;20276;-67
2022/08/22 06:09:07;;;;;;;6.47;3.97;;;;;;;22.96;43.20;99564.31;4139336;28;20233;-67
2022/08/22 06:11:25;;;;;;;7.63;4.43;;;;;;;22.34;44.52;99562.34;4124172;28;20229;-69
2022/08/22 06:13:42;;;;;;;6.30;3.77;;;;;;;22.39;44.08;99571.41;4133497;28;20228;-69
2022/08/22 06:15:54;;;;;;;4.60;3.50;;;;;;;22.44;44.51;99540.91;4138130;28;20287;-66
2022/08/22 06:18:02;;;;;;;5.20;3.23;;;;;;;22.78;43.66;99552.59;4139001;28;20225;-67
2022/08/22 06:20:10;;;;;;;5.37;3.60;;;;;;;22.92;43.28;99552.28;4140207;28;20682;-69
2022/08/22 06:22:30;;;;;;;5.30;3.57;;;;;;;22.63;44.33;99558.56;4139132;28;20620;-66
2022/08/22 06:24:36;;;;;;;5.57;3.47;;;;;;;22.18;44.54;99569.34;4136482;28;20249;-66
2022/08/22 06:26:43;;;;;;;7.23;3.97;;;;;;;21.82;45.43;99566.72;4144796;28;20236;-66
2022/08/22 06:28:54;;;;;;;10.67;3.87;;;;;;;23.03;43.93;99543.28;4144673;28;20236;-66
2022/08/22 06:30:57;;;;;;;6.43;3.50;;;;;;;22.67;44.10;99560.81;4142958;28;20717;-66
2022/08/22 06:33:05;;;;;;;5.60;3.20;;;;;;;22.44;44.98;99562.56;4143120;28;20236;-67
2022/08/22 06:35:26;;;;;;;6.10;3.43;;;;;;;23.23;43.81;99572.59;4140400;28;20298;-67
2022/08/22 06:37:37;;;;;;;4.73;3.30;;;;;;;23.57;43.26;99564.47;4140814;28;20236;-66
2022/08/22 06:39:43;;;;;;;4.20;3.50;;;;;;;23.46;43.12;99566.16;4138892;28;20712;-67
2022/08/22 06:42:10;;;;;;;8.23;4.23;;;;;;;23.09;43.96;99574.81;4138339;28;20240;-68
2022/08/22 06:44:22;;;;;;;5.10;3.37;;;;;;;23.31;43.23;99584.94;4136897;28;20240;-66
2022/08/22 06:46:28;;;;;;;8.63;3.97;;;;;;;23.24;43.21;99584.28;4132615;28;20236;-67
2022/08/22 06:48:33;;;;;;;7.60;3.83;;;;;;;23.42;42.87;99589.47;4143003;28;20241;-68
2022/08/22 06:50:41;;;;;;;7.60;3.85;;;;;;;23.32;43.10;99575.75;4136025;28;20324;-66
2022/08/22 06:53:17;;;;;;;5.83;3.40;;;;;;;23.72;42.54;99582.84;4140211;28;20236;-68
2022/08/22 06:55:21;;;;;;;7.47;3.70;;;;;;;23.80;42.56;99590.56;4133355;28;20234;-67
2022/08/22 06:57:28;;;;;;;5.67;3.17;;;;;;;23.32;43.43;99594.72;4136122;28;20931;-67
2022/08/22 06:59:36;;;;;;;7.13;3.37;;;;;;;23.27;43.03;99602.78;4139011;28;20237;-67
2022/08/22 07:01:45;;;;;;;7.30;3.53;;;;;;;24.09;41.83;99598.53;4141267;28;20240;-67
2022/08/22 07:03:53;;;;;;;6.72;3.17;;;;;;;24.60;41.04;99610.03;4137728;28;20316;-68
2022/08/22 07:05:55;;;;;;;8.17;3.50;;;;;;;24.00;41.63;99619.06;4147514;28;20613;-68
2022/08/22 07:07:57;;;;;;;6.63;3.50;;;;;;;24.18;41.70;99613.34;4142606;28;20237;-67
2022/08/22 07:09:59;;;;;;;4.67;3.20;;;;;;;24.08;41.89;99610.50;4135582;28;20690;-67
2022/08/22 07:12:23;;;;;;;7.67;3.60;;;;;;;23.80;42.33;99612.28;4141875;28;20233;-68
2022/08/22 07:14:28;;;;;;;4.80;3.40;;;;;;;23.92;41.75;99618.44;4142287;28;20279;-66
2022/08/22 07:16:43;;;;;;;6.47;3.67;;;;;;;24.31;41.65;99609.41;4140655;28;20236;-70
2022/08/22 07:18:49;;;;;;;5.63;3.57;;;;;;;24.09;41.25;99629.25;4134156;28;20684;-69
2022/08/22 07:20:58;;;;;;;6.40;3.50;;;;;;;24.41;41.24;99612.28;4142764;28;20258;-70
2022/08/22 07:23:08;;;;;;;6.53;3.10;;;;;;;24.55;41.29;99620.00;4143301;28;20236;-68
2022/08/22 07:25:13;;;;;;;7.53;3.90;;;;;;;24.91;40.63;99623.94;4144515;28;20290;-67
2022/08/22 07:27:41;;;;;;;4.57;2.90;;;;;;;24.94;40.72;99614.47;4139728;28;20308;-67
2022/08/22 07:30:05;;;;;;;5.40;3.35;;;;;;;23.90;41.12;99636.84;4139613;28;20228;-66
2022/08/22 07:32:15;;;;;;;7.63;3.73;;;;;;;24.46;41.28;99625.09;4144898;28;20316;-66
2022/08/22 07:34:47;;;;;;;6.30;3.70;;;;;;;24.94;40.63;99617.19;4138297;28;20233;-67
2022/08/22 07:36:54;;;;;;;4.50;2.97;;;;;;;24.77;40.63;99628.19;4139319;28;20229;-66
2022/08/22 07:39:19;;;;;;;4.80;3.22;;;;;;;24.58;40.67;99628.50;4142502;28;20577;-71
2022/08/22 07:41:31;;;;;;;6.43;3.55;;;;;;;25.33;39.79;99628.66;4132315;28;20305;-70
2022/08/22 07:43:35;;;;;;;5.28;2.95;;;;;;;25.69;38.96;99628.94;4142798;28;20296;-70
2022/08/22 07:45:52;;;;;;;7.50;3.63;;;;;;;24.83;40.60;99635.28;4144050;28;20240;-67
2022/08/22 07:48:13;;;;;;;4.90;3.17;;;;;;;25.37;40.34;99620.81;4143707;28;20228;-71
2022/08/22 07:50:30;;;;;;;4.82;3.25;;;;;;;25.34;40.05;99627.59;4140725;28;20611;-74
2022/08/22 07:52:40;;;;;;;6.70;3.38;;;;;;;25.30;40.07;99626.47;4148175;28;20267;-69
2022/08/22 07:55:37;;;;;;;6.45;3.30;;;;;;;25.97;38.85;99626.97;4144027;28;20694;-70
2022/08/22 07:57:59;;;;;;;5.65;3.40;;;;;;;25.71;38.79;99624.06;4139456;28;20969;-67
2022/08/22 08:00:10;;;;;;;4.40;3.03;;;;;;;25.70;39.48;99629.78;4143966;28;20605;-68
2022/08/22 08:02:14;;;;;;;3.67;2.90;;;;;;;26.23;38.84;99629.78;4139267;28;20229;-69
2022/08/22 08:04:23;;;;;;;5.72;3.55;;;;;;;26.13;39.08;99631.41;4145788;28;20229;-69
2022/08/22 08:06:26;;;;;;;6.82;3.60;;;;;;;25.75;39.68;99630.63;4146163;28;20228;-70
2022/08/22 08:08:42;;;;;;;4.95;3.22;;;;;;;25.56;39.56;99629.38;4141260;28;20236;-69
2022/08/22 08:10:47;;;;;;;7.40;3.63;;;;;;;26.38;38.80;99615.41;4140540;28;20241;-69
2022/08/22 08:12:53;;;;;;;5.70;3.30;;;;;;;26.21;38.71;99627.34;4141372;28;20235;-69
2022/08/22 08:15:07;;;;;;;7.13;3.15;;;;;;;26.13;38.67;99634.13;4146221;28;20233;-66
2022/08/22 08:17:21;;;;;;;6.97;3.30;;;;;;;26.27;38.51;99637.19;4145021;28;20319;-67
2022/08/22 08:19:24;;;;;;;6.90;3.33;;;;;;;26.48;37.95;99642.69;4141850;28;20295;-66
2022/08/22 08:21:39;;;;;;;6.95;3.22;;;;;;;26.60;38.05;99631.59;4147635;28;20733;-68
2022/08/22 08:23:45;;;;;;;6.53;3.20;;;;;;;26.69;38.13;99633.53;4145248;28;20315;-67
2022/08/22 08:25:56;;;;;;;4.95;3.15;;;;;;;26.38;38.39;99635.31;4146239;28;20287;-68
2022/08/22 08:30:40;;;;;;;5.45;3.17;;;;;;;26.01;39.71;99619.06;4145552;28;20229;-69
2022/08/22 08:32:46;;;;;;;6.38;3.05;;;;;;;25.14;40.78;99613.81;4141169;28;20241;-68
2022/08/22 08:34:51;;;;;;;5.22;3.20;;;;;;;25.21;40.30;99614.44;4144682;28;20273;-68
2022/08/22 08:37:03;;;;;;;7.25;3.78;;;;;;;26.07;39.62;99583.41;4138702;28;20513;-67
2022/08/22 08:39:34;;;;;;;8.73;3.25;;;;;;;26.56;39.19;99582.22;4145005;28;20820;-66
2022/08/22 08:41:52;;;;;;;6.40;3.20;;;;;;;25.46;40.54;99599.38;4146394;28;20259;-66
2022/08/22 08:44:21;;;;;;;9.15;3.75;;;;;;;25.85;40.42;99601.81;4141686;28;20237;-66
2022/08/22 08:46:51;;;;;;;8.55;3.35;;;;;;;27.08;38.64;99585.84;4144762;28;20599;-67
2022/08/22 08:49:21;;;;;;;9.00;3.45;;;;;;;25.15;41.00;99597.22;4143516;28;20251;-66
2022/08/22 08:51:42;;;;;;;8.57;3.60;;;;;;;26.71;39.38;99581.44;4143854;28;20304;-66
2022/08/22 08:54:20;;;;;;;6.00;3.45;;;;;;;26.75;39.17;99582.53;4143167;28;20726;-67
2022/08/22 08:56:29;;;;;;;9.20;3.85;;;;;;;26.98;39.52;99580.38;4144439;28;20711;-67
2022/08/22 08:58:44;;;;;;;6.10;3.47;;;;;;;27.20;39.21;99589.13;4147372;28;20232;-66
2022/08/22 09:01:16;;;;;;;6.65;3.60;;;;;;;26.83;38.64;99600.28;4144390;28;20264;-67
2022/08/22 09:03:48;;;;;;;6.28;3.20;;;;;;;27.25;38.22;99604.69;4140086;28;20282;-66
2022/08/22 09:06:13;;;;;;;5.32;3.38;;;;;;;27.63;37.48;99611.47;4139203;28;20234;-66
2022/08/22 09:08:29;;;;;;;6.32;3.47;;;;;;;27.59;37.79;99615.81;4133859;28;20233;-66
2022/08/22 09:10:49;;;;;;;5.78;3.40;;;;;;;27.42;38.17;99620.75;4138516;28;20702;-66
2022/08/22 09:13:29;;;;;;;6.88;3.13;;;;;;;27.82;37.51;99610.91;4136754;28;20279;-67
2022/08/22 09:15:53;;;;;;;7.75;3.58;;;;;;;28.06;36.93;99624.75;4136757;28;20233;-66
2022/08/22 09:18:13;;;;;;;6.80;3.38;;;;;;;27.67;37.16;99630.03;4142481;28;20236;-67
2022/08/22 09:20:46;;;;;;;6.88;3.90;;;;;;;27.38;37.09;99625.13;4140803;28;20903;-66
2022/08/22 09:23:16;;;;;;;5.90;3.17;;;;;;;27.61;36.60;99619.09;4138268;28;20236;-67
2022/08/22 09:25:33;;;;;;;7.38;3.30;;;;;;;27.75;36.18;99627.56;4137570;28;20734;-68
2022/08/22 09:28:09;;;;;;;5.90;3.42;;;;;;;27.06;36.90;99624.31;4139915;28;20241;-67
2022/08/22 09:30:18;;;;;;;8.80;3.45;;;;;;;27.44;36.77;99610.38;4141307;28;20268;-68
2022/08/22 09:32:52;;;;;;;5.18;3.30;;;;;;;27.84;36.55;99616.88;4141618;28;20279;-66
2022/08/22 09:35:18;;;;;;;9.88;3.40;;;;;;;27.66;36.82;99626.47;4137517;28;20241;-64
2022/08/22 09:37:40;;;;;;;8.70;3.40;;;;;;;27.81;36.81;99620.97;4142534;28;20261;-65
2022/08/22 09:40:20;;;;;;;9.50;4.10;;;;;;;28.17;36.71;99622.78;4140359;28;20283;-65
2022/08/22 09:42:40;;;;;;;8.70;3.60;;;;;;;27.04;37.68;99620.19;4138051;28;20329;-64
2022/08/22 09:45:17;;;;;;;7.15;3.30;;;;;;;27.27;37.33;99613.41;4140986;28;20241;-64
2022/08/22 09:47:32;;;;;;;5.40;3.00;;;;;;;27.47;37.20;99598.09;4142426;28;20238;-64
2022/08/22 09:50:04;;;;;;;5.63;2.95;;;;;;;28.41;36.22;99600.25;4139265;28;20241;-63
2022/08/22 09:52:23;;;;;;;7.72;3.38;;;;;;;28.96;36.11;99606.50;4137079;28;20226;-67
2022/08/22 09:54:47;;;;;;;7.35;3.70;;;;;;;28.61;36.07;99613.81;4133266;28;20485;-63
2022/08/22 09:57:00;;;;;;;6.25;3.25;;;;;;;28.39;36.29;99613.41;4144018;28;20241;-63
2022/08/22 09:59:08;;;;;;;5.30;3.40;;;;;;;28.87;36.28;99619.97;4143568;28;20576;-64
2022/08/22 10:01:47;;;;;;;9.23;3.60;;;;;;;28.66;36.29;99612.97;4145695;28;20291;-65
2022/08/22 10:04:18;;;;;;;8.25;3.65;;;;;;;29.19;35.71;99598.66;4139228;28;20252;-64
2022/08/22 10:06:30;;;;;;;7.50;3.33;;;;;;;28.34;36.85;99620.56;4141077;28;20772;-64
2022/08/22 10:08:45;;;;;;;7.53;3.42;;;;;;;28.68;36.09;99605.31;4137213;28;20237;-64
2022/08/22 10:10:53;;;;;;;6.28;3.45;;;;;;;28.25;37.40;99589.41;4141222;28;20229;-63
2022/08/22 10:13:13;;;;;;;5.53;3.35;;;;;;;28.65;36.29;99593.00;4139415;28;20236;-66
2022/08/22 10:15:40;;;;;;;8.70;3.30;;;;;;;29.02;35.84;99588.94;4138646;28;20229;-67
2022/08/22 10:18:09;;;;;;;4.72;2.92;;;;;;;28.94;35.74;99608.72;4139294;28;20237;-67
2022/08/22 10:20:21;;;;;;;4.60;2.75;;;;;;;28.92;35.46;99605.44;4139109;28;20772;-65
2022/08/22 10:22:38;;;;;;;5.65;3.00;;;;;;;29.36;34.91;99599.06;4136606;28;20267;-64
2022/08/22 10:24:49;;;;;;;7.47;3.08;;;;;;;29.44;35.06;99598.44;4137235;28;20300;-62
2022/08/22 10:26:55;;;;;;;4.10;2.90;;;;;;;29.79;34.47;99596.47;4140317;28;20336;-63
2022/08/22 10:29:18;;;;;;;5.05;3.25;;;;;;;29.44;35.35;99594.91;4141776;28;20229;-63
2022/08/22 10:31:28;;;;;;;5.35;3.28;;;;;;;29.33;35.09;99602.38;4143178;28;20281;-63
2022/08/22 10:33:35;;;;;;;4.40;3.38;;;;;;;29.55;35.11;99590.13;4139532;28;20240;-63
2022/08/22 10:35:54;;;;;;;5.82;3.05;;;;;;;29.85;33.70;99602.69;4139566;28;20253;-63
2022/08/22 10:38:01;;;;;;;7.80;3.10;;;;;;;30.10;33.84;99587.84;4138155;28;20232;-63
2022/08/22 10:40:07;;;;;;;6.25;3.03;;;;;;;29.51;34.92;99578.94;4137813;28;20232;-65
2022/08/22 10:42:27;;;;;;;5.80;3.13;;;;;;;29.66;33.39;99580.69;4140169;28;20244;-65
2022/08/22 10:45:07;;;;;;;6.22;3.55;;;;;;;29.87;32.70;99578.53;4135832;28;20237;-64
2022/08/22 10:47:19;;;;;;;3.35;2.67;;;;;;;29.95;32.35;99588.06;4137699;28;20224;-63
2022/08/22 10:49:39;;;;;;;7.97;3.08;;;;;;;29.16;33.13;99578.13;4139404;28;20229;-64
2022/08/22 10:51:48;;;;;;;7.82;3.38;;;;;;;29.10;33.55;99565.59;4137709;28;20241;-65